sensor_id;sensor_type;location;lat;lon;timestamp;P1;durP1;ratioP1;P2;durP2;ratioP2
39208;SDS011;24929;51.982;4.664;2023-04-24T00:00:11;1.60;;;1.50;;
39208;SDS011;24929;51.982;4.664;2023-04-24T00:02:39;2.30;;;1.33;;
39208;SDS011;24929;51.982;4.664;2023-04-24T00:05:12;1.48;;;1.30;;
39208;SDS011;24929;51.982;4.664;2023-04-24T00:07:38;2.38;;;1.65;;
39208;SDS011;24929;51.982;4.664;2023-04-24T00:10:04;4.55;;;2.35;;
39208;SDS011;24929;51.982;4.664;2023-04-24T00:12:30;5.28;;;2.53;;
39208;SDS011;24929;51.982;4.664;2023-04-24T00:14:55;2.28;;;2.08;;
39208;SDS011;24929;51.982;4.664;2023-04-24T00:17:21;4.47;;;2.42;;
39208;SDS011;24929;51.982;4.664;2023-04-24T00:19:47;5.45;;;2.05;;
39208;SDS011;24929;51.982;4.664;2023-04-24T00:22:13;2.70;;;2.00;;
39208;SDS011;24929;51.982;4.664;2023-04-24T00:24:39;1.70;;;1.60;;
39208;SDS011;24929;51.982;4.664;2023-04-24T00:27:05;2.60;;;1.90;;
39208;SDS011;24929;51.982;4.664;2023-04-24T00:29:31;2.10;;;1.70;;
39208;SDS011;24929;51.982;4.664;2023-04-24T00:31:56;3.08;;;1.50;;
39208;SDS011;24929;51.982;4.664;2023-04-24T00:34:21;1.33;;;1.23;;
39208;SDS011;24929;51.982;4.664;2023-04-24T00:36:47;2.78;;;1.30;;
39208;SDS011;24929;51.982;4.664;2023-04-24T00:39:15;1.95;;;1.27;;
39208;SDS011;24929;51.982;4.664;2023-04-24T00:41:41;2.83;;;1.45;;
39208;SDS011;24929;51.982;4.664;2023-04-24T00:44:06;1.65;;;1.52;;
39208;SDS011;24929;51.982;4.664;2023-04-24T00:46:32;1.88;;;1.40;;
39208;SDS011;24929;51.982;4.664;2023-04-24T00:48:57;1.90;;;1.30;;
39208;SDS011;24929;51.982;4.664;2023-04-24T00:51:24;1.90;;;1.67;;
39208;SDS011;24929;51.982;4.664;2023-04-24T00:53:49;2.33;;;1.40;;
39208;SDS011;24929;51.982;4.664;2023-04-24T00:56:16;2.20;;;1.38;;
39208;SDS011;24929;51.982;4.664;2023-04-24T00:58:42;2.42;;;1.67;;
39208;SDS011;24929;51.982;4.664;2023-04-24T01:01:08;2.55;;;2.05;;
39208;SDS011;24929;51.982;4.664;2023-04-24T01:03:34;1.33;;;1.23;;
39208;SDS011;24929;51.982;4.664;2023-04-24T01:06:02;1.63;;;1.45;;
39208;SDS011;24929;51.982;4.664;2023-04-24T01:08:29;1.98;;;1.70;;
39208;SDS011;24929;51.982;4.664;2023-04-24T01:10:54;1.90;;;1.50;;
39208;SDS011;24929;51.982;4.664;2023-04-24T01:13:21;2.92;;;1.70;;
39208;SDS011;24929;51.982;4.664;2023-04-24T01:15:47;2.55;;;2.05;;
39208;SDS011;24929;51.982;4.664;2023-04-24T01:18:13;2.53;;;2.33;;
39208;SDS011;24929;51.982;4.664;2023-04-24T01:20:40;2.53;;;2.22;;
39208;SDS011;24929;51.982;4.664;2023-04-24T01:23:07;3.88;;;2.53;;
39208;SDS011;24929;51.982;4.664;2023-04-24T01:25:32;2.83;;;2.47;;
39208;SDS011;24929;51.982;4.664;2023-04-24T01:27:58;3.70;;;2.55;;
39208;SDS011;24929;51.982;4.664;2023-04-24T01:30:24;2.53;;;2.33;;
39208;SDS011;24929;51.982;4.664;2023-04-24T01:32:50;4.28;;;2.72;;
39208;SDS011;24929;51.982;4.664;2023-04-24T01:35:16;3.30;;;2.97;;
39208;SDS011;24929;51.982;4.664;2023-04-24T01:37:42;3.65;;;2.83;;
39208;SDS011;24929;51.982;4.664;2023-04-24T01:40:07;6.28;;;2.72;;
39208;SDS011;24929;51.982;4.664;2023-04-24T01:42:34;4.78;;;3.30;;
39208;SDS011;24929;51.982;4.664;2023-04-24T01:44:59;7.00;;;3.70;;
39208;SDS011;24929;51.982;4.664;2023-04-24T01:47:25;4.30;;;3.90;;
39208;SDS011;24929;51.982;4.664;2023-04-24T01:49:51;4.60;;;4.13;;
39208;SDS011;24929;51.982;4.664;2023-04-24T01:52:16;4.18;;;3.10;;
39208;SDS011;24929;51.982;4.664;2023-04-24T01:54:43;2.65;;;2.38;;
39208;SDS011;24929;51.982;4.664;2023-04-24T01:57:09;3.15;;;2.80;;
39208;SDS011;24929;51.982;4.664;2023-04-24T01:59:35;3.20;;;2.33;;
39208;SDS011;24929;51.982;4.664;2023-04-24T02:02:01;2.92;;;2.47;;
39208;SDS011;24929;51.982;4.664;2023-04-24T02:04:27;2.17;;;1.88;;
39208;SDS011;24929;51.982;4.664;2023-04-24T02:06:53;2.47;;;1.85;;
39208;SDS011;24929;51.982;4.664;2023-04-24T02:09:18;1.50;;;1.33;;
39208;SDS011;24929;51.982;4.664;2023-04-24T02:11:43;1.42;;;1.25;;
39208;SDS011;24929;51.982;4.664;2023-04-24T02:14:09;1.35;;;0.95;;
39208;SDS011;24929;51.982;4.664;2023-04-24T02:16:34;1.58;;;1.05;;
39208;SDS011;24929;51.982;4.664;2023-04-24T02:19:00;0.68;;;0.63;;
39208;SDS011;24929;51.982;4.664;2023-04-24T02:21:26;0.70;;;0.70;;
39208;SDS011;24929;51.982;4.664;2023-04-24T02:23:53;1.45;;;0.68;;
39208;SDS011;24929;51.982;4.664;2023-04-24T02:26:18;0.80;;;0.80;;
39208;SDS011;24929;51.982;4.664;2023-04-24T02:28:44;0.63;;;0.52;;
39208;SDS011;24929;51.982;4.664;2023-04-24T02:31:09;1.23;;;0.75;;
39208;SDS011;24929;51.982;4.664;2023-04-24T02:33:34;0.80;;;0.80;;
39208;SDS011;24929;51.982;4.664;2023-04-24T02:36:00;1.58;;;0.90;;
39208;SDS011;24929;51.982;4.664;2023-04-24T02:38:26;1.15;;;0.80;;
39208;SDS011;24929;51.982;4.664;2023-04-24T02:40:52;1.65;;;1.25;;
39208;SDS011;24929;51.982;4.664;2023-04-24T02:43:17;1.08;;;0.98;;
39208;SDS011;24929;51.982;4.664;2023-04-24T02:45:42;1.98;;;1.13;;
39208;SDS011;24929;51.982;4.664;2023-04-24T02:48:08;1.35;;;1.25;;
39208;SDS011;24929;51.982;4.664;2023-04-24T02:50:33;5.22;;;1.38;;
39208;SDS011;24929;51.982;4.664;2023-04-24T02:52:58;1.58;;;1.13;;
39208;SDS011;24929;51.982;4.664;2023-04-24T02:55:24;0.98;;;0.77;;
39208;SDS011;24929;51.982;4.664;2023-04-24T02:57:50;2.80;;;1.80;;
39208;SDS011;24929;51.982;4.664;2023-04-24T03:00:15;2.97;;;1.80;;
39208;SDS011;24929;51.982;4.664;2023-04-24T03:02:41;2.72;;;1.73;;
39208;SDS011;24929;51.982;4.664;2023-04-24T03:05:07;2.70;;;2.08;;
39208;SDS011;24929;51.982;4.664;2023-04-24T03:07:33;2.17;;;1.98;;
39208;SDS011;24929;51.982;4.664;2023-04-24T03:09:59;3.28;;;1.77;;
39208;SDS011;24929;51.982;4.664;2023-04-24T03:12:24;1.70;;;1.60;;
39208;SDS011;24929;51.982;4.664;2023-04-24T03:14:50;1.02;;;0.88;;
39208;SDS011;24929;51.982;4.664;2023-04-24T03:17:15;0.60;;;0.60;;
39208;SDS011;24929;51.982;4.664;2023-04-24T03:19:41;0.40;;;0.40;;
39208;SDS011;24929;51.982;4.664;2023-04-24T03:22:06;0.32;;;0.32;;
39208;SDS011;24929;51.982;4.664;2023-04-24T03:24:34;0.45;;;0.40;;
39208;SDS011;24929;51.982;4.664;2023-04-24T03:26:59;1.10;;;0.45;;
39208;SDS011;24929;51.982;4.664;2023-04-24T03:29:25;0.30;;;0.30;;
39208;SDS011;24929;51.982;4.664;2023-04-24T03:31:50;0.88;;;0.60;;
39208;SDS011;24929;51.982;4.664;2023-04-24T03:34:16;1.38;;;0.40;;
39208;SDS011;24929;51.982;4.664;2023-04-24T03:36:41;0.35;;;0.35;;
39208;SDS011;24929;51.982;4.664;2023-04-24T03:39:06;2.47;;;0.70;;
39208;SDS011;24929;51.982;4.664;2023-04-24T03:41:32;0.60;;;0.47;;
39208;SDS011;24929;51.982;4.664;2023-04-24T03:43:57;7.95;;;1.27;;
39208;SDS011;24929;51.982;4.664;2023-04-24T03:46:23;1.17;;;0.65;;
39208;SDS011;24929;51.982;4.664;2023-04-24T03:48:48;0.50;;;0.50;;
39208;SDS011;24929;51.982;4.664;2023-04-24T03:51:14;2.28;;;0.85;;
39208;SDS011;24929;51.982;4.664;2023-04-24T03:53:39;4.47;;;0.93;;
39208;SDS011;24929;51.982;4.664;2023-04-24T03:56:05;0.75;;;0.68;;
39208;SDS011;24929;51.982;4.664;2023-04-24T03:58:30;1.48;;;1.05;;
39208;SDS011;24929;51.982;4.664;2023-04-24T04:00:56;1.15;;;0.82;;
39208;SDS011;24929;51.982;4.664;2023-04-24T04:03:22;1.02;;;0.88;;
39208;SDS011;24929;51.982;4.664;2023-04-24T04:05:48;3.03;;;1.02;;
39208;SDS011;24929;51.982;4.664;2023-04-24T04:08:13;1.90;;;1.00;;
39208;SDS011;24929;51.982;4.664;2023-04-24T04:10:39;0.85;;;0.45;;
39208;SDS011;24929;51.982;4.664;2023-04-24T04:13:04;1.30;;;0.65;;
39208;SDS011;24929;51.982;4.664;2023-04-24T04:15:31;1.98;;;0.95;;
39208;SDS011;24929;51.982;4.664;2023-04-24T04:17:56;1.90;;;1.20;;
39208;SDS011;24929;51.982;4.664;2023-04-24T04:20:22;1.13;;;0.82;;
39208;SDS011;24929;51.982;4.664;2023-04-24T04:22:47;4.65;;;1.38;;
39208;SDS011;24929;51.982;4.664;2023-04-24T04:25:13;3.97;;;1.45;;
39208;SDS011;24929;51.982;4.664;2023-04-24T04:27:38;7.53;;;1.60;;
39208;SDS011;24929;51.982;4.664;2023-04-24T04:30:04;1.75;;;1.48;;
39208;SDS011;24929;51.982;4.664;2023-04-24T04:32:31;1.73;;;1.15;;
39208;SDS011;24929;51.982;4.664;2023-04-24T04:34:58;4.57;;;1.33;;
39208;SDS011;24929;51.982;4.664;2023-04-24T04:37:31;2.75;;;0.75;;
39208;SDS011;24929;51.982;4.664;2023-04-24T04:39:58;1.10;;;0.93;;
39208;SDS011;24929;51.982;4.664;2023-04-24T04:42:24;0.70;;;0.70;;
39208;SDS011;24929;51.982;4.664;2023-04-24T04:44:50;5.53;;;1.75;;
39208;SDS011;24929;51.982;4.664;2023-04-24T04:47:16;1.63;;;1.20;;
39208;SDS011;24929;51.982;4.664;2023-04-24T04:49:42;1.20;;;1.10;;
39208;SDS011;24929;51.982;4.664;2023-04-24T04:52:08;3.30;;;1.25;;
39208;SDS011;24929;51.982;4.664;2023-04-24T04:54:33;3.92;;;2.13;;
39208;SDS011;24929;51.982;4.664;2023-04-24T04:56:59;3.45;;;1.02;;
39208;SDS011;24929;51.982;4.664;2023-04-24T04:59:25;3.72;;;1.40;;
39208;SDS011;24929;51.982;4.664;2023-04-24T05:01:51;5.18;;;1.60;;
39208;SDS011;24929;51.982;4.664;2023-04-24T05:04:17;2.72;;;1.77;;
39208;SDS011;24929;51.982;4.664;2023-04-24T05:06:42;3.83;;;2.15;;
39208;SDS011;24929;51.982;4.664;2023-04-24T05:09:07;6.57;;;3.47;;
39208;SDS011;24929;51.982;4.664;2023-04-24T05:11:33;5.60;;;3.28;;
39208;SDS011;24929;51.982;4.664;2023-04-24T05:13:58;5.15;;;3.30;;
39208;SDS011;24929;51.982;4.664;2023-04-24T05:16:24;5.30;;;3.08;;
39208;SDS011;24929;51.982;4.664;2023-04-24T05:18:49;6.10;;;3.28;;
39208;SDS011;24929;51.982;4.664;2023-04-24T05:21:15;7.50;;;3.53;;
39208;SDS011;24929;51.982;4.664;2023-04-24T05:23:40;4.03;;;3.35;;
39208;SDS011;24929;51.982;4.664;2023-04-24T05:26:05;7.28;;;4.80;;
39208;SDS011;24929;51.982;4.664;2023-04-24T05:28:31;12.32;;;6.45;;
39208;SDS011;24929;51.982;4.664;2023-04-24T05:30:56;12.65;;;8.70;;
39208;SDS011;24929;51.982;4.664;2023-04-24T05:33:21;13.98;;;9.63;;
39208;SDS011;24929;51.982;4.664;2023-04-24T05:35:47;25.08;;;10.35;;
39208;SDS011;24929;51.982;4.664;2023-04-24T05:38:13;19.55;;;10.63;;
39208;SDS011;24929;51.982;4.664;2023-04-24T05:40:42;17.60;;;10.98;;
39208;SDS011;24929;51.982;4.664;2023-04-24T05:43:08;15.82;;;10.15;;
39208;SDS011;24929;51.982;4.664;2023-04-24T05:45:33;12.35;;;9.10;;
39208;SDS011;24929;51.982;4.664;2023-04-24T05:48:00;16.70;;;9.55;;
39208;SDS011;24929;51.982;4.664;2023-04-24T05:50:26;13.07;;;9.30;;
39208;SDS011;24929;51.982;4.664;2023-04-24T05:52:52;14.88;;;9.68;;
39208;SDS011;24929;51.982;4.664;2023-04-24T05:55:17;14.77;;;10.38;;
39208;SDS011;24929;51.982;4.664;2023-04-24T05:57:43;17.98;;;9.70;;
39208;SDS011;24929;51.982;4.664;2023-04-24T06:06:21;11.45;;;9.40;;
39208;SDS011;24929;51.982;4.664;2023-04-24T06:08:46;16.20;;;9.40;;
39208;SDS011;24929;51.982;4.664;2023-04-24T06:11:12;13.40;;;8.90;;
39208;SDS011;24929;51.982;4.664;2023-04-24T06:13:37;18.85;;;10.05;;
39208;SDS011;24929;51.982;4.664;2023-04-24T06:16:02;12.23;;;9.23;;
39208;SDS011;24929;51.982;4.664;2023-04-24T06:18:28;15.82;;;9.07;;
39208;SDS011;24929;51.982;4.664;2023-04-24T06:23:27;14.75;;;8.20;;
39208;SDS011;24929;51.982;4.664;2023-04-24T06:25:52;10.48;;;8.30;;
39208;SDS011;24929;51.982;4.664;2023-04-24T06:28:18;17.85;;;9.18;;
39208;SDS011;24929;51.982;4.664;2023-04-24T06:30:43;18.08;;;8.38;;
39208;SDS011;24929;51.982;4.664;2023-04-24T06:33:09;17.00;;;6.90;;
39208;SDS011;24929;51.982;4.664;2023-04-24T06:35:35;14.68;;;8.32;;
39208;SDS011;24929;51.982;4.664;2023-04-24T06:38:02;25.60;;;7.40;;
39208;SDS011;24929;51.982;4.664;2023-04-24T06:40:28;20.67;;;7.18;;
39208;SDS011;24929;51.982;4.664;2023-04-24T06:42:53;25.23;;;7.82;;
39208;SDS011;24929;51.982;4.664;2023-04-24T06:45:21;15.35;;;5.85;;
39208;SDS011;24929;51.982;4.664;2023-04-24T06:47:46;12.63;;;6.70;;
39208;SDS011;24929;51.982;4.664;2023-04-24T06:50:12;24.55;;;6.75;;
39208;SDS011;24929;51.982;4.664;2023-04-24T06:52:37;10.23;;;5.78;;
39208;SDS011;24929;51.982;4.664;2023-04-24T06:55:03;27.45;;;6.80;;
39208;SDS011;24929;51.982;4.664;2023-04-24T06:57:29;14.85;;;5.90;;
39208;SDS011;24929;51.982;4.664;2023-04-24T06:59:55;9.60;;;5.18;;
39208;SDS011;24929;51.982;4.664;2023-04-24T07:02:20;12.52;;;5.97;;
39208;SDS011;24929;51.982;4.664;2023-04-24T07:04:46;17.15;;;6.28;;
39208;SDS011;24929;51.982;4.664;2023-04-24T07:07:13;15.02;;;6.97;;
39208;SDS011;24929;51.982;4.664;2023-04-24T07:09:39;8.48;;;5.15;;
39208;SDS011;24929;51.982;4.664;2023-04-24T07:12:07;20.92;;;5.63;;
39208;SDS011;24929;51.982;4.664;2023-04-24T07:14:33;16.48;;;5.15;;
39208;SDS011;24929;51.982;4.664;2023-04-24T07:16:58;15.80;;;6.13;;
39208;SDS011;24929;51.982;4.664;2023-04-24T07:19:24;9.77;;;4.18;;
39208;SDS011;24929;51.982;4.664;2023-04-24T07:21:49;7.50;;;3.78;;
39208;SDS011;24929;51.982;4.664;2023-04-24T07:27:36;9.02;;;4.07;;
39208;SDS011;24929;51.982;4.664;2023-04-24T07:30:03;10.25;;;3.85;;
39208;SDS011;24929;51.982;4.664;2023-04-24T07:32:29;11.68;;;4.28;;
39208;SDS011;24929;51.982;4.664;2023-04-24T07:34:55;12.52;;;4.22;;
39208;SDS011;24929;51.982;4.664;2023-04-24T07:37:20;13.15;;;4.38;;
39208;SDS011;24929;51.982;4.664;2023-04-24T07:39:46;11.77;;;3.92;;
39208;SDS011;24929;51.982;4.664;2023-04-24T07:42:11;13.50;;;3.28;;
39208;SDS011;24929;51.982;4.664;2023-04-24T07:44:36;16.90;;;4.20;;
39208;SDS011;24929;51.982;4.664;2023-04-24T07:47:02;13.02;;;4.68;;
39208;SDS011;24929;51.982;4.664;2023-04-24T07:49:27;11.35;;;4.22;;
39208;SDS011;24929;51.982;4.664;2023-04-24T07:51:52;13.98;;;3.08;;
39208;SDS011;24929;51.982;4.664;2023-04-24T07:57:40;10.02;;;3.55;;
39208;SDS011;24929;51.982;4.664;2023-04-24T08:00:05;13.13;;;4.60;;
39208;SDS011;24929;51.982;4.664;2023-04-24T08:02:31;19.30;;;4.60;;
39208;SDS011;24929;51.982;4.664;2023-04-24T08:04:56;7.32;;;3.13;;
39208;SDS011;24929;51.982;4.664;2023-04-24T08:07:22;4.72;;;2.50;;
39208;SDS011;24929;51.982;4.664;2023-04-24T08:09:48;15.40;;;3.97;;
39208;SDS011;24929;51.982;4.664;2023-04-24T08:12:14;8.55;;;3.40;;
39208;SDS011;24929;51.982;4.664;2023-04-24T08:14:39;11.05;;;4.00;;
39208;SDS011;24929;51.982;4.664;2023-04-24T08:17:05;9.25;;;3.65;;
39208;SDS011;24929;51.982;4.664;2023-04-24T08:19:30;12.70;;;2.92;;
39208;SDS011;24929;51.982;4.664;2023-04-24T08:21:56;9.07;;;3.08;;
39208;SDS011;24929;51.982;4.664;2023-04-24T08:24:21;4.40;;;2.92;;
39208;SDS011;24929;51.982;4.664;2023-04-24T08:26:47;8.07;;;2.38;;
39208;SDS011;24929;51.982;4.664;2023-04-24T08:29:15;7.20;;;3.83;;
39208;SDS011;24929;51.982;4.664;2023-04-24T08:31:40;7.65;;;2.92;;
39208;SDS011;24929;51.982;4.664;2023-04-24T08:34:06;4.47;;;3.13;;
39208;SDS011;24929;51.982;4.664;2023-04-24T08:36:31;12.38;;;3.78;;
39208;SDS011;24929;51.982;4.664;2023-04-24T08:38:57;7.50;;;2.95;;
39208;SDS011;24929;51.982;4.664;2023-04-24T08:41:22;7.25;;;3.13;;
39208;SDS011;24929;51.982;4.664;2023-04-24T08:43:51;5.30;;;2.50;;
39208;SDS011;24929;51.982;4.664;2023-04-24T08:46:16;5.03;;;1.98;;
39208;SDS011;24929;51.982;4.664;2023-04-24T08:48:44;3.75;;;2.42;;
39208;SDS011;24929;51.982;4.664;2023-04-24T08:51:10;8.57;;;2.33;;
39208;SDS011;24929;51.982;4.664;2023-04-24T08:53:36;2.42;;;1.85;;
39208;SDS011;24929;51.982;4.664;2023-04-24T08:56:02;5.57;;;2.40;;
39208;SDS011;24929;51.982;4.664;2023-04-24T08:58:28;4.30;;;2.25;;
39208;SDS011;24929;51.982;4.664;2023-04-24T09:00:54;8.68;;;2.17;;
39208;SDS011;24929;51.982;4.664;2023-04-24T09:03:20;9.52;;;2.53;;
39208;SDS011;24929;51.982;4.664;2023-04-24T09:05:46;5.40;;;2.40;;
39208;SDS011;24929;51.982;4.664;2023-04-24T09:08:13;3.08;;;1.75;;
39208;SDS011;24929;51.982;4.664;2023-04-24T09:10:39;6.25;;;1.95;;
39208;SDS011;24929;51.982;4.664;2023-04-24T09:13:05;7.88;;;1.80;;
39208;SDS011;24929;51.982;4.664;2023-04-24T09:15:31;12.65;;;1.90;;
39208;SDS011;24929;51.982;4.664;2023-04-24T09:17:56;11.27;;;2.10;;
39208;SDS011;24929;51.982;4.664;2023-04-24T09:20:22;3.85;;;1.38;;
39208;SDS011;24929;51.982;4.664;2023-04-24T09:22:47;7.03;;;1.42;;
39208;SDS011;24929;51.982;4.664;2023-04-24T09:25:13;3.90;;;1.48;;
39208;SDS011;24929;51.982;4.664;2023-04-24T09:27:41;5.05;;;1.45;;
39208;SDS011;24929;51.982;4.664;2023-04-24T09:30:09;5.75;;;1.75;;
39208;SDS011;24929;51.982;4.664;2023-04-24T09:32:35;1.67;;;1.13;;
39208;SDS011;24929;51.982;4.664;2023-04-24T09:35:11;3.60;;;0.90;;
39208;SDS011;24929;51.982;4.664;2023-04-24T09:37:39;2.55;;;1.08;;
39208;SDS011;24929;51.982;4.664;2023-04-24T09:40:12;3.72;;;1.38;;
39208;SDS011;24929;51.982;4.664;2023-04-24T09:42:52;1.38;;;0.80;;
39208;SDS011;24929;51.982;4.664;2023-04-24T09:45:18;1.77;;;0.80;;
39208;SDS011;24929;51.982;4.664;2023-04-24T09:47:45;3.00;;;1.23;;
39208;SDS011;24929;51.982;4.664;2023-04-24T09:50:14;7.20;;;1.75;;
39208;SDS011;24929;51.982;4.664;2023-04-24T09:52:41;1.65;;;0.70;;
39208;SDS011;24929;51.982;4.664;2023-04-24T09:55:14;5.13;;;1.10;;
39208;SDS011;24929;51.982;4.664;2023-04-24T09:57:51;2.95;;;1.10;;
39208;SDS011;24929;51.982;4.664;2023-04-24T10:00:22;3.15;;;1.45;;
39208;SDS011;24929;51.982;4.664;2023-04-24T10:02:56;8.25;;;1.33;;
39208;SDS011;24929;51.982;4.664;2023-04-24T10:08:00;5.03;;;1.40;;
39208;SDS011;24929;51.982;4.664;2023-04-24T10:10:34;1.42;;;0.90;;
39208;SDS011;24929;51.982;4.664;2023-04-24T10:13:03;3.03;;;1.13;;
39208;SDS011;24929;51.982;4.664;2023-04-24T10:15:29;2.30;;;0.77;;
39208;SDS011;24929;51.982;4.664;2023-04-24T10:17:55;2.15;;;0.77;;
39208;SDS011;24929;51.982;4.664;2023-04-24T10:20:24;2.70;;;1.02;;
39208;SDS011;24929;51.982;4.664;2023-04-24T10:22:52;3.22;;;1.23;;
39208;SDS011;24929;51.982;4.664;2023-04-24T10:25:19;4.30;;;1.70;;
39208;SDS011;24929;51.982;4.664;2023-04-24T10:27:47;6.72;;;1.20;;
39208;SDS011;24929;51.982;4.664;2023-04-24T10:30:13;2.85;;;1.20;;
39208;SDS011;24929;51.982;4.664;2023-04-24T10:32:39;0.88;;;0.40;;
39208;SDS011;24929;51.982;4.664;2023-04-24T10:35:08;1.35;;;0.75;;
39208;SDS011;24929;51.982;4.664;2023-04-24T10:37:36;3.58;;;0.65;;
39208;SDS011;24929;51.982;4.664;2023-04-24T10:40:05;1.98;;;0.77;;
39208;SDS011;24929;51.982;4.664;2023-04-24T10:42:33;1.90;;;0.43;;
39208;SDS011;24929;51.982;4.664;2023-04-24T10:44:58;4.68;;;1.67;;
39208;SDS011;24929;51.982;4.664;2023-04-24T10:47:26;2.78;;;0.85;;
39208;SDS011;24929;51.982;4.664;2023-04-24T10:49:52;0.60;;;0.60;;
39208;SDS011;24929;51.982;4.664;2023-04-24T10:52:17;4.68;;;1.05;;
39208;SDS011;24929;51.982;4.664;2023-04-24T10:54:44;5.28;;;1.73;;
39208;SDS011;24929;51.982;4.664;2023-04-24T11:00:24;1.58;;;0.77;;
39208;SDS011;24929;51.982;4.664;2023-04-24T11:02:52;3.33;;;0.80;;
39208;SDS011;24929;51.982;4.664;2023-04-24T11:05:19;6.03;;;0.90;;
39208;SDS011;24929;51.982;4.664;2023-04-24T11:10:40;2.33;;;1.08;;
39208;SDS011;24929;51.982;4.664;2023-04-24T11:13:09;4.28;;;1.40;;
39208;SDS011;24929;51.982;4.664;2023-04-24T11:15:34;6.53;;;1.00;;
39208;SDS011;24929;51.982;4.664;2023-04-24T11:18:00;4.15;;;1.75;;
39208;SDS011;24929;51.982;4.664;2023-04-24T11:20:25;6.57;;;1.45;;
39208;SDS011;24929;51.982;4.664;2023-04-24T11:22:52;5.05;;;0.90;;
39208;SDS011;24929;51.982;4.664;2023-04-24T11:25:19;1.55;;;0.20;;
39208;SDS011;24929;51.982;4.664;2023-04-24T11:27:47;2.50;;;1.15;;
39208;SDS011;24929;51.982;4.664;2023-04-24T11:30:18;4.35;;;0.38;;
39208;SDS011;24929;51.982;4.664;2023-04-24T11:32:47;0.88;;;0.77;;
39208;SDS011;24929;51.982;4.664;2023-04-24T11:35:19;1.52;;;0.90;;
39208;SDS011;24929;51.982;4.664;2023-04-24T11:37:47;3.15;;;0.77;;
39208;SDS011;24929;51.982;4.664;2023-04-24T11:40:15;4.18;;;1.25;;
39208;SDS011;24929;51.982;4.664;2023-04-24T11:42:42;3.92;;;0.70;;
39208;SDS011;24929;51.982;4.664;2023-04-24T11:45:10;1.80;;;0.75;;
39208;SDS011;24929;51.982;4.664;2023-04-24T11:47:40;7.55;;;0.85;;
39208;SDS011;24929;51.982;4.664;2023-04-24T11:50:07;2.53;;;1.00;;
39208;SDS011;24929;51.982;4.664;2023-04-24T11:52:38;2.63;;;0.80;;
39208;SDS011;24929;51.982;4.664;2023-04-24T11:55:12;2.40;;;1.13;;
39208;SDS011;24929;51.982;4.664;2023-04-24T11:57:52;1.50;;;0.73;;
39208;SDS011;24929;51.982;4.664;2023-04-24T12:00:22;1.75;;;0.73;;
39208;SDS011;24929;51.982;4.664;2023-04-24T12:02:50;3.92;;;1.80;;
39208;SDS011;24929;51.982;4.664;2023-04-24T12:05:19;9.20;;;2.05;;
39208;SDS011;24929;51.982;4.664;2023-04-24T12:07:46;6.25;;;1.83;;
39208;SDS011;24929;51.982;4.664;2023-04-24T12:10:11;4.07;;;1.63;;
39208;SDS011;24929;51.982;4.664;2023-04-24T12:12:36;3.63;;;1.08;;
39208;SDS011;24929;51.982;4.664;2023-04-24T12:15:06;2.35;;;1.25;;
39208;SDS011;24929;51.982;4.664;2023-04-24T12:17:32;1.90;;;0.95;;
39208;SDS011;24929;51.982;4.664;2023-04-24T12:19:59;6.70;;;1.38;;
39208;SDS011;24929;51.982;4.664;2023-04-24T12:22:26;6.10;;;1.60;;
39208;SDS011;24929;51.982;4.664;2023-04-24T12:25:02;5.25;;;1.50;;
39208;SDS011;24929;51.982;4.664;2023-04-24T12:27:32;9.50;;;1.75;;
39208;SDS011;24929;51.982;4.664;2023-04-24T12:29:58;5.43;;;1.80;;
39208;SDS011;24929;51.982;4.664;2023-04-24T12:32:25;2.88;;;1.45;;
39208;SDS011;24929;51.982;4.664;2023-04-24T12:34:51;4.15;;;1.38;;
39208;SDS011;24929;51.982;4.664;2023-04-24T12:37:17;3.25;;;1.55;;
39208;SDS011;24929;51.982;4.664;2023-04-24T12:42:34;7.45;;;2.13;;
39208;SDS011;24929;51.982;4.664;2023-04-24T12:45:02;10.50;;;2.15;;
39208;SDS011;24929;51.982;4.664;2023-04-24T12:47:30;7.10;;;2.33;;
39208;SDS011;24929;51.982;4.664;2023-04-24T12:49:56;4.97;;;2.50;;
39208;SDS011;24929;51.982;4.664;2023-04-24T12:52:25;2.60;;;1.48;;
39208;SDS011;24929;51.982;4.664;2023-04-24T12:54:54;9.18;;;2.83;;
39208;SDS011;24929;51.982;4.664;2023-04-24T12:57:21;8.90;;;2.90;;
39208;SDS011;24929;51.982;4.664;2023-04-24T12:59:47;6.28;;;2.13;;
39208;SDS011;24929;51.982;4.664;2023-04-24T13:02:12;7.78;;;2.10;;
39208;SDS011;24929;51.982;4.664;2023-04-24T13:04:38;5.05;;;1.58;;
39208;SDS011;24929;51.982;4.664;2023-04-24T13:07:04;4.93;;;1.38;;
39208;SDS011;24929;51.982;4.664;2023-04-24T13:09:30;6.07;;;1.75;;
39208;SDS011;24929;51.982;4.664;2023-04-24T13:11:56;5.22;;;2.30;;
39208;SDS011;24929;51.982;4.664;2023-04-24T13:14:22;8.23;;;2.25;;
39208;SDS011;24929;51.982;4.664;2023-04-24T13:16:47;3.70;;;2.08;;
39208;SDS011;24929;51.982;4.664;2023-04-24T13:19:13;9.57;;;1.88;;
39208;SDS011;24929;51.982;4.664;2023-04-24T13:21:38;10.25;;;2.17;;
39208;SDS011;24929;51.982;4.664;2023-04-24T13:24:04;15.48;;;3.55;;
39208;SDS011;24929;51.982;4.664;2023-04-24T13:26:30;8.00;;;2.80;;
39208;SDS011;24929;51.982;4.664;2023-04-24T13:28:56;5.28;;;1.90;;
39208;SDS011;24929;51.982;4.664;2023-04-24T13:31:21;7.70;;;2.17;;
39208;SDS011;24929;51.982;4.664;2023-04-24T13:33:46;7.90;;;1.98;;
39208;SDS011;24929;51.982;4.664;2023-04-24T13:36:12;4.88;;;2.10;;
39208;SDS011;24929;51.982;4.664;2023-04-24T13:38:37;4.75;;;2.33;;
39208;SDS011;24929;51.982;4.664;2023-04-24T13:41:02;7.10;;;2.10;;
39208;SDS011;24929;51.982;4.664;2023-04-24T13:43:28;5.22;;;1.98;;
39208;SDS011;24929;51.982;4.664;2023-04-24T13:45:53;7.63;;;2.13;;
39208;SDS011;24929;51.982;4.664;2023-04-24T13:48:18;5.72;;;1.95;;
39208;SDS011;24929;51.982;4.664;2023-04-24T13:50:44;4.55;;;2.10;;
39208;SDS011;24929;51.982;4.664;2023-04-24T13:53:09;4.93;;;2.00;;
39208;SDS011;24929;51.982;4.664;2023-04-24T13:55:35;5.78;;;1.83;;
39208;SDS011;24929;51.982;4.664;2023-04-24T13:58:01;4.95;;;2.20;;
39208;SDS011;24929;51.982;4.664;2023-04-24T14:00:27;5.20;;;2.20;;
39208;SDS011;24929;51.982;4.664;2023-04-24T14:02:53;6.57;;;1.80;;
39208;SDS011;24929;51.982;4.664;2023-04-24T14:05:18;12.60;;;1.75;;
39208;SDS011;24929;51.982;4.664;2023-04-24T14:07:43;4.95;;;1.88;;
39208;SDS011;24929;51.982;4.664;2023-04-24T14:10:09;4.00;;;1.52;;
39208;SDS011;24929;51.982;4.664;2023-04-24T14:12:35;6.18;;;2.60;;
39208;SDS011;24929;51.982;4.664;2023-04-24T14:15:00;3.20;;;1.95;;
39208;SDS011;24929;51.982;4.664;2023-04-24T14:17:26;6.25;;;2.60;;
39208;SDS011;24929;51.982;4.664;2023-04-24T14:19:52;9.65;;;2.40;;
39208;SDS011;24929;51.982;4.664;2023-04-24T14:22:21;6.15;;;2.65;;
39208;SDS011;24929;51.982;4.664;2023-04-24T14:24:46;7.05;;;3.58;;
39208;SDS011;24929;51.982;4.664;2023-04-24T14:27:11;6.47;;;2.53;;
39208;SDS011;24929;51.982;4.664;2023-04-24T14:29:37;7.43;;;3.13;;
39208;SDS011;24929;51.982;4.664;2023-04-24T14:32:02;7.18;;;2.78;;
39208;SDS011;24929;51.982;4.664;2023-04-24T14:34:28;4.70;;;2.78;;
39208;SDS011;24929;51.982;4.664;2023-04-24T14:36:53;6.82;;;2.85;;
39208;SDS011;24929;51.982;4.664;2023-04-24T14:39:19;6.05;;;2.22;;
39208;SDS011;24929;51.982;4.664;2023-04-24T14:41:45;9.85;;;3.05;;
39208;SDS011;24929;51.982;4.664;2023-04-24T14:44:10;13.13;;;3.10;;
39208;SDS011;24929;51.982;4.664;2023-04-24T14:46:36;12.35;;;2.97;;
39208;SDS011;24929;51.982;4.664;2023-04-24T14:49:01;7.78;;;3.72;;
39208;SDS011;24929;51.982;4.664;2023-04-24T14:51:27;7.68;;;2.30;;
39208;SDS011;24929;51.982;4.664;2023-04-24T14:53:52;6.85;;;3.05;;
39208;SDS011;24929;51.982;4.664;2023-04-24T14:56:18;13.57;;;3.17;;
39208;SDS011;24929;51.982;4.664;2023-04-24T14:58:43;11.82;;;3.42;;
39208;SDS011;24929;51.982;4.664;2023-04-24T15:01:08;5.53;;;2.20;;
39208;SDS011;24929;51.982;4.664;2023-04-24T15:03:35;5.20;;;2.47;;
39208;SDS011;24929;51.982;4.664;2023-04-24T15:06:00;7.07;;;2.63;;